createdAt,value
2019-01-19T00:02:12.050Z,98.80
2019-01-19T00:05:17.994Z,99.10
2019-01-19T00:08:33.802Z,99.10
2019-01-19T00:11:50.307Z,99.20
2019-01-19T00:14:23.365Z,99.10
2019-01-19T00:17:35.225Z,99.00
2019-01-19T00:20:27.942Z,99.00
2019-01-19T00:23:46.578Z,98.80
2019-01-19T00:26:43.198Z,99.00
2019-01-19T00:29:46.881Z,98.90
2019-01-19T00:33:05.686Z,99.00
2019-01-19T00:35:57.261Z,98.90
2019-01-19T00:39:04.317Z,98.70
2019-01-19T00:42:05.645Z,98.70
2019-01-19T00:45:01.143Z,98.80
2019-01-19T00:47:55.925Z,98.90
2019-01-19T00:51:03.682Z,98.90
2019-01-19T00:53:39.469Z,99.00
2019-01-19T00:56:44.299Z,98.80
2019-01-19T00:59:25.578Z,98.50
2019-01-19T01:02:28.110Z,98.70
2019-01-19T01:05:13.113Z,98.70
2019-01-19T01:08:28.699Z,98.70
2019-01-19T01:11:38.592Z,98.80
2019-01-19T01:15:03.210Z,98.90
2019-01-19T01:17:40.728Z,99.00
2019-01-19T01:21:08.687Z,98.90
2019-01-19T01:24:18.090Z,98.80
2019-01-19T01:27:17.314Z,98.50
2019-01-19T01:30:42.569Z,98.70
2019-01-19T01:33:46.910Z,98.60
2019-01-19T01:36:27.229Z,98.70
2019-01-19T01:39:40.432Z,98.80
2019-01-19T01:42:51.757Z,98.90
2019-01-19T01:45:52.735Z,98.70
2019-01-19T01:48:57.724Z,98.90
2019-01-19T01:52:11.113Z,98.90
2019-01-19T01:55:10.601Z,98.80
2019-01-19T01:57:53.469Z,98.60
2019-01-19T02:00:37.902Z,98.60
2019-01-19T02:03:48.165Z,98.60
2019-01-19T02:06:35.573Z,98.70
2019-01-19T02:09:35.769Z,98.70
2019-01-19T02:12:57.513Z,98.70
2019-01-19T02:16:25.567Z,98.90
2019-01-19T02:19:49.599Z,99.20
2019-01-19T02:23:13.770Z,98.70
2019-01-19T02:26:20.623Z,98.70
2019-01-19T02:29:16.117Z,98.70
2019-01-19T02:32:27.698Z,98.50
2019-01-19T02:35:23.996Z,98.30
2019-01-19T02:38:34.407Z,98.40
2019-01-19T02:41:29.294Z,98.20
2019-01-19T02:44:42.844Z,98.10
2019-01-19T02:47:52.992Z,98.50
2019-01-19T02:50:44.921Z,98.30
2019-01-19T02:53:50.239Z,98.20
2019-01-19T02:56:27.502Z,98.20
2019-01-19T02:59:11.811Z,98.40
2019-01-19T03:02:16.574Z,99.10
2019-01-19T03:05:12.826Z,98.90
2019-01-19T03:08:21.434Z,98.80
2019-01-19T03:11:18.115Z,98.90
2019-01-19T03:14:23.650Z,98.70
2019-01-19T03:17:33.799Z,98.70
2019-01-19T03:20:30.481Z,98.70
2019-01-19T03:23:46.434Z,98.50
2019-01-19T03:26:59.398Z,98.60
2019-01-19T03:30:23.393Z,99.10
2019-01-19T03:33:35.772Z,99.00
2019-01-19T03:36:43.750Z,98.40
2019-01-19T03:39:56.829Z,98.50
2019-01-19T03:43:07.725Z,98.20
2019-01-19T03:46:00.224Z,98.20
2019-01-19T03:49:18.758Z,98.20
2019-01-19T03:52:16.290Z,98.10
2019-01-19T03:55:23.343Z,98.10
2019-01-19T03:58:10.120Z,97.90
2019-01-19T04:01:00.718Z,98.00
2019-01-19T04:04:08.118Z,97.90
2019-01-19T04:06:51.573Z,97.90
2019-01-19T04:10:25.985Z,97.80
2019-01-19T04:13:35.780Z,97.90
2019-01-19T04:16:51.824Z,98.10
2019-01-19T04:20:10.158Z,97.60
2019-01-19T04:22:43.217Z,97.90
2019-01-19T04:25:16.230Z,98.50
2019-01-19T04:27:44.855Z,97.50
2019-01-19T04:30:13.190Z,98.00
2019-01-19T04:32:42.083Z,97.40
2019-01-19T04:35:10.545Z,97.60
2019-01-19T04:37:38.736Z,97.70
2019-01-19T04:40:08.592Z,97.70
2019-01-19T04:42:38.168Z,97.90
2019-01-19T04:45:06.850Z,97.90
2019-01-19T04:47:35.253Z,97.70
2019-01-19T04:50:04.129Z,98.00
2019-01-19T04:52:32.480Z,98.60
2019-01-19T04:55:00.710Z,97.10
2019-01-19T04:57:29.348Z,98.20
2019-01-19T04:59:58.033Z,98.50
2019-01-19T05:02:26.466Z,98.20
2019-01-19T05:04:54.823Z,97.70
2019-01-19T05:07:23.374Z,97.80
2019-01-19T05:09:51.554Z,98.00
2019-01-19T05:12:20.325Z,97.40
2019-01-19T05:14:48.646Z,97.50
2019-01-19T05:17:17.305Z,97.40
2019-01-19T05:19:45.684Z,98.10
2019-01-19T05:22:14.106Z,98.00
2019-01-19T05:24:42.250Z,97.40
2019-01-19T05:27:10.631Z,97.50
2019-01-19T05:29:39.073Z,97.50
2019-01-19T05:32:07.078Z,96.90
2019-01-19T05:34:35.904Z,98.00
2019-01-19T05:37:04.631Z,97.70
2019-01-19T05:39:33.077Z,98.00
2019-01-19T05:42:01.116Z,97.50
2019-01-19T05:44:29.823Z,97.40
2019-01-19T05:46:58.460Z,97.80
2019-01-19T05:49:26.871Z,97.10
2019-01-19T05:51:56.482Z,97.80
2019-01-19T05:54:24.864Z,97.70
2019-01-19T05:56:53.206Z,97.70
2019-01-19T05:59:21.880Z,97.40
2019-01-19T06:01:50.551Z,97.50
2019-01-19T06:04:19.254Z,97.80
2019-01-19T06:06:47.670Z,97.70
2019-01-19T06:09:16.317Z,97.80
2019-01-19T06:11:45.058Z,97.80
2019-01-19T06:14:13.174Z,97.40
2019-01-19T06:16:41.309Z,97.70
2019-01-19T06:19:09.637Z,98.50
2019-01-19T06:21:46.133Z,97.20
2019-01-19T06:24:14.335Z,97.40
2019-01-19T06:26:42.981Z,97.90
2019-01-19T06:29:11.721Z,97.30
2019-01-19T06:31:40.112Z,96.80
2019-01-19T06:34:09.124Z,97.50
2019-01-19T06:36:37.808Z,97.10
2019-01-19T06:39:08.196Z,96.80
2019-01-19T06:41:36.909Z,97.50
2019-01-19T06:44:05.203Z,97.70
2019-01-19T06:46:33.482Z,96.60
2019-01-19T06:49:02.052Z,97.10
2019-01-19T06:51:30.893Z,96.80
2019-01-19T06:54:01.674Z,96.10
2019-01-19T06:56:29.914Z,96.70
2019-01-19T06:58:58.178Z,97.10
2019-01-19T07:01:26.441Z,97.70
2019-01-19T07:03:55.448Z,97.70
2019-01-19T07:06:24.193Z,97.90
2019-01-19T07:09:04.465Z,97.90
2019-01-19T07:11:32.832Z,97.00
2019-01-19T07:14:01.604Z,97.30
2019-01-19T07:16:30.507Z,96.80
2019-01-19T07:18:59.297Z,97.30
2019-01-19T07:21:27.860Z,97.10
2019-01-19T07:23:56.585Z,96.90
2019-01-19T07:26:24.663Z,96.90
2019-01-19T07:28:52.726Z,96.70
2019-01-19T07:31:21.531Z,97.00
2019-01-19T07:33:50.216Z,96.80
2019-01-19T07:36:18.571Z,96.60
2019-01-19T07:38:47.145Z,96.90
2019-01-19T07:41:15.301Z,96.90
2019-01-19T07:43:43.581Z,96.80
2019-01-19T07:46:12.235Z,96.60
2019-01-19T07:48:40.751Z,96.70
2019-01-19T07:51:09.725Z,96.90
2019-01-19T07:53:37.765Z,96.80
2019-01-19T07:56:05.893Z,97.30
2019-01-19T07:58:34.195Z,96.50
2019-01-19T08:01:02.456Z,94.70
2019-01-19T08:03:31.202Z,92.00
2019-01-19T08:05:59.925Z,89.10
2019-01-19T08:08:28.119Z,80.10
2019-01-19T08:10:56.104Z,72.50
2019-01-19T08:13:24.763Z,67.30
2019-01-19T08:15:53.708Z,63.40
2019-01-19T08:18:22.360Z,60.80
2019-01-19T08:20:51.349Z,61.30
2019-01-19T08:23:19.466Z,59.30
2019-01-19T08:25:48.262Z,56.00
2019-01-19T08:28:16.401Z,56.40
2019-01-19T08:30:45.071Z,55.30
2019-01-19T08:33:13.998Z,55.30
2019-01-19T08:35:43.438Z,54.30
2019-01-19T08:38:11.819Z,52.70
2019-01-19T08:40:40.384Z,52.70
2019-01-19T08:43:15.700Z,53.50
2019-01-19T08:45:44.752Z,54.30
2019-01-19T08:48:13.934Z,54.30
2019-01-19T08:50:42.898Z,53.70
2019-01-19T08:53:11.226Z,52.00
2019-01-19T08:55:39.366Z,52.20
2019-01-19T08:58:07.862Z,50.50
2019-01-19T09:00:37.372Z,49.30
2019-01-19T09:03:06.317Z,49.10
2019-01-19T09:05:37.254Z,48.60
2019-01-19T09:08:07.121Z,49.30
2019-01-19T09:10:35.886Z,48.50
2019-01-19T09:13:04.762Z,49.10
2019-01-19T09:15:33.338Z,48.90
2019-01-19T09:18:01.991Z,47.20
2019-01-19T09:20:31.679Z,45.50
2019-01-19T09:23:05.052Z,46.00
2019-01-19T09:25:33.957Z,45.90
2019-01-19T09:28:02.920Z,46.90
2019-01-19T09:30:31.553Z,47.40
2019-01-19T09:33:00.161Z,50.70
2019-01-19T09:35:28.817Z,53.60
2019-01-19T09:37:57.641Z,57.30
2019-01-19T09:40:26.171Z,59.70
2019-01-19T09:42:55.653Z,63.00
2019-01-19T09:45:23.998Z,64.20
2019-01-19T09:47:52.409Z,66.20
2019-01-19T09:50:21.282Z,67.00
2019-01-19T09:52:49.579Z,67.10
2019-01-19T09:55:18.203Z,66.50
2019-01-19T09:57:46.862Z,59.90
2019-01-19T10:00:17.029Z,55.60
2019-01-19T10:02:45.511Z,52.40
2019-01-19T10:05:16.683Z,51.30
2019-01-19T10:07:48.728Z,49.90
2019-01-19T10:10:15.858Z,48.20
2019-01-19T10:12:44.078Z,48.30
2019-01-19T10:15:14.399Z,50.50
2019-01-19T10:17:42.565Z,53.60
2019-01-19T10:20:21.608Z,54.70
2019-01-19T10:22:49.903Z,55.40
2019-01-19T10:25:20.799Z,55.30
2019-01-19T10:27:49.229Z,54.50
2019-01-19T10:30:20.243Z,51.80
2019-01-19T10:32:49.639Z,50.20
2019-01-19T10:35:18.427Z,47.60
2019-01-19T10:37:47.361Z,46.50
2019-01-19T10:40:17.593Z,44.80
2019-01-19T10:42:45.851Z,44.10
2019-01-19T10:45:16.850Z,45.20
2019-01-19T10:47:45.187Z,45.30
2019-01-19T10:50:14.798Z,43.30
2019-01-19T10:52:43.507Z,43.00
2019-01-19T10:55:12.956Z,44.10
2019-01-19T10:57:41.612Z,44.20
2019-01-19T11:00:15.892Z,43.40
2019-01-19T11:02:44.438Z,42.10
2019-01-19T11:05:12.952Z,41.20
2019-01-19T11:07:43.548Z,43.40
2019-01-19T11:10:19.008Z,42.40
2019-01-19T11:12:50.245Z,42.40
2019-01-19T11:15:19.419Z,40.00
2019-01-19T11:17:47.929Z,39.70
2019-01-19T11:20:21.194Z,39.50
2019-01-19T11:22:50.191Z,38.20
2019-01-19T11:25:19.170Z,38.20
2019-01-19T11:27:47.462Z,39.20
2019-01-19T11:30:20.325Z,39.30
2019-01-19T11:32:49.082Z,40.70
2019-01-19T11:35:19.544Z,41.20
2019-01-19T11:37:47.837Z,40.70
2019-01-19T11:40:27.164Z,39.40
2019-01-19T11:42:56.063Z,37.80
2019-01-19T11:45:24.837Z,36.70
2019-01-19T11:47:53.098Z,37.90
2019-01-19T11:50:22.709Z,39.70
2019-01-19T11:52:51.375Z,39.00
2019-01-19T11:55:19.548Z,38.70
2019-01-19T11:57:49.997Z,39.70
2019-01-19T12:00:20.114Z,38.80
2019-01-19T12:02:48.695Z,40.20
2019-01-19T12:05:17.427Z,38.90
2019-01-19T12:07:45.672Z,37.80
2019-01-19T12:10:19.664Z,40.10
2019-01-19T12:12:49.284Z,40.30
2019-01-19T12:15:18.131Z,38.90
2019-01-19T12:17:46.828Z,40.70
2019-01-19T12:20:20.992Z,40.60
2019-01-19T12:22:51.582Z,39.80
2019-01-19T12:25:21.271Z,39.90
2019-01-19T12:27:49.474Z,41.80
2019-01-19T12:30:19.818Z,42.10
2019-01-19T12:32:48.761Z,43.60
2019-01-19T12:35:17.617Z,44.00
2019-01-19T12:37:47.012Z,44.50
2019-01-19T12:40:16.939Z,46.30
2019-01-19T12:42:46.434Z,50.10
2019-01-19T12:45:17.838Z,49.00
2019-01-19T12:47:46.710Z,48.80
2019-01-19T12:50:17.973Z,51.60
2019-01-19T12:52:46.456Z,52.60
2019-01-19T12:55:14.801Z,52.90
2019-01-19T12:57:42.891Z,54.20
2019-01-19T13:00:14.186Z,54.20
2019-01-19T13:02:44.096Z,54.50
2019-01-19T13:05:34.461Z,55.70
2019-01-19T13:08:02.992Z,55.30
2019-01-19T13:10:40.876Z,55.00
2019-01-19T13:13:18.105Z,55.30
2019-01-19T13:16:34.466Z,56.80
2019-01-19T13:19:29.225Z,56.10
2019-01-19T13:22:42.398Z,55.20
2019-01-19T13:25:54.927Z,55.10
2019-01-19T13:29:02.805Z,56.00
2019-01-19T13:32:15.379Z,56.90
2019-01-19T13:35:19.054Z,54.90
2019-01-19T13:38:13.625Z,55.70
2019-01-19T13:41:32.123Z,57.10
2019-01-19T13:44:55.884Z,56.80
2019-01-19T13:48:19.654Z,56.80
2019-01-19T13:51:17.581Z,58.10
2019-01-19T13:54:52.464Z,59.40
2019-01-19T13:58:26.818Z,58.70
2019-01-19T14:01:30.777Z,57.50
2019-01-19T14:04:30.520Z,58.20
2019-01-19T14:07:39.426Z,59.00
2019-01-19T14:10:22.883Z,58.70
2019-01-19T14:13:40.349Z,59.50
2019-01-19T14:16:43.159Z,59.90
2019-01-19T14:19:34.922Z,59.40
2019-01-19T14:22:48.702Z,60.80
2019-01-19T14:25:54.273Z,59.70
2019-01-19T14:28:58.923Z,60.10
2019-01-19T14:32:17.713Z,61.50
2019-01-19T14:35:21.488Z,62.90
2019-01-19T14:38:33.952Z,63.00
2019-01-19T14:41:42.002Z,66.40
2019-01-19T14:44:31.901Z,64.50
2019-01-19T14:47:28.896Z,66.80
2019-01-19T14:50:20.559Z,71.10
2019-01-19T14:53:27.961Z,73.60
2019-01-19T14:56:28.514Z,73.70
2019-01-19T14:59:24.955Z,74.80
2019-01-19T15:02:36.963Z,75.60
2019-01-19T15:05:32.839Z,79.40
2019-01-19T15:08:48.370Z,82.40
2019-01-19T15:11:48.139Z,88.00
2019-01-19T15:14:57.553Z,90.30
2019-01-19T15:18:16.066Z,91.60
2019-01-19T15:21:21.795Z,92.70
2019-01-19T15:24:07.485Z,93.30
2019-01-19T15:27:10.703Z,93.80
2019-01-19T15:30:22.772Z,93.30
2019-01-19T15:33:21.332Z,94.00
2019-01-19T15:36:20.156Z,93.80
2019-01-19T15:39:34.302Z,93.50
2019-01-19T15:42:40.786Z,93.20
2019-01-19T15:46:08.633Z,92.50
2019-01-19T15:49:25.151Z,93.60
2019-01-19T15:52:22.238Z,94.40
2019-01-19T15:55:12.370Z,94.80
2019-01-19T15:58:22.066Z,95.00
2019-01-19T16:01:18.538Z,95.30
2019-01-19T16:04:35.592Z,95.40
2019-01-19T16:07:49.462Z,95.10
2019-01-19T16:10:41.799Z,94.70
2019-01-19T16:13:52.802Z,94.50
2019-01-19T16:16:55.949Z,94.20
2019-01-19T16:20:19.182Z,94.30
2019-01-19T16:22:56.348Z,94.50
2019-01-19T16:26:07.994Z,94.70
2019-01-19T16:29:51.326Z,95.00
2019-01-19T16:33:03.977Z,95.40
2019-01-19T16:36:19.359Z,95.60
2019-01-19T16:39:25.420Z,95.90
2019-01-19T16:42:13.054Z,95.80
2019-01-19T16:45:19.618Z,95.60
2019-01-19T16:48:28.581Z,95.80
2019-01-19T16:51:24.247Z,96.10
2019-01-19T16:54:18.318Z,95.90
2019-01-19T16:57:31.025Z,96.10
2019-01-19T17:00:37.712Z,95.70
2019-01-19T17:03:45.309Z,96.00
2019-01-19T17:07:00.242Z,96.00
2019-01-19T17:10:02.593Z,96.20
2019-01-19T17:12:57.487Z,95.90
2019-01-19T17:15:55.631Z,95.40
2019-01-19T17:18:47.685Z,96.00
2019-01-19T17:21:46.163Z,96.00
2019-01-19T17:24:49.579Z,96.30
2019-01-19T17:27:59.461Z,96.00
2019-01-19T17:31:09.893Z,95.90
2019-01-19T17:34:06.745Z,95.60
2019-01-19T17:37:16.635Z,95.70
2019-01-19T17:40:35.714Z,96.00
2019-01-19T17:44:00.562Z,95.90
2019-01-19T17:47:04.733Z,95.60
2019-01-19T17:50:01.233Z,96.10
2019-01-19T17:52:55.220Z,96.30
2019-01-19T17:56:00.372Z,96.40
2019-01-19T17:59:09.059Z,96.40
2019-01-19T18:02:07.986Z,96.50
2019-01-19T18:05:10.667Z,96.30
2019-01-19T18:08:21.811Z,96.20
2019-01-19T18:11:34.324Z,96.00
2019-01-19T18:14:41.447Z,96.00
2019-01-19T18:17:37.783Z,96.20
2019-01-19T18:20:49.414Z,96.30
2019-01-19T18:23:54.048Z,95.70
2019-01-19T18:27:03.923Z,95.80
2019-01-19T18:30:09.194Z,95.90
2019-01-19T18:33:08.557Z,96.50
2019-01-19T18:36:12.797Z,96.70
2019-01-19T18:39:29.446Z,96.50
2019-01-19T18:42:26.751Z,96.10
2019-01-19T18:45:24.806Z,96.00
2019-01-19T18:48:33.218Z,95.80
2019-01-19T18:51:11.074Z,96.20
2019-01-19T18:54:05.061Z,95.40
2019-01-19T18:57:13.406Z,95.10
2019-01-19T19:00:20.498Z,95.40
2019-01-19T19:03:29.673Z,95.40
2019-01-19T19:06:25.766Z,95.60
2019-01-19T19:09:44.729Z,95.50
2019-01-19T19:12:53.007Z,95.60
2019-01-19T19:16:01.040Z,94.90
2019-01-19T19:19:09.404Z,94.60
2019-01-19T19:22:32.121Z,94.90
2019-01-19T19:25:51.463Z,94.30
2019-01-19T19:29:01.249Z,95.00
2019-01-19T19:32:00.758Z,94.90
2019-01-19T19:35:12.754Z,95.00
2019-01-19T19:38:09.087Z,94.90
2019-01-19T19:41:13.174Z,94.30
2019-01-19T19:44:26.945Z,94.70
2019-01-19T19:47:33.170Z,94.80
2019-01-19T19:50:28.855Z,95.30
2019-01-19T19:52:57.096Z,95.00
2019-01-19T19:55:24.088Z,93.90
2019-01-19T19:57:52.259Z,94.40
2019-01-19T20:00:20.304Z,93.70
2019-01-19T20:02:48.926Z,93.90
2019-01-19T20:05:19.715Z,93.70
2019-01-19T20:07:48.433Z,93.10
2019-01-19T20:10:17.503Z,93.90
2019-01-19T20:12:46.249Z,93.90
2019-01-19T20:15:14.559Z,92.90
2019-01-19T20:17:43.541Z,94.20
2019-01-19T20:20:13.318Z,93.70
2019-01-19T20:22:44.203Z,93.40
2019-01-19T20:25:12.929Z,93.50
2019-01-19T20:27:41.884Z,93.10
2019-01-19T20:30:12.599Z,93.30
2019-01-19T20:32:41.461Z,92.70
2019-01-19T20:35:10.561Z,93.00
2019-01-19T20:37:39.389Z,92.50
2019-01-19T20:40:07.996Z,92.30
2019-01-19T20:42:37.430Z,92.60
2019-01-19T20:45:07.202Z,92.20
2019-01-19T20:47:36.321Z,93.00
2019-01-19T20:50:05.322Z,92.90
2019-01-19T20:52:33.778Z,93.10
2019-01-19T20:55:02.055Z,93.40
2019-01-19T20:57:30.312Z,93.80
2019-01-19T20:59:58.308Z,94.40
2019-01-19T21:02:26.326Z,93.90
2019-01-19T21:04:55.201Z,92.90
2019-01-19T21:07:23.686Z,93.40
2019-01-19T21:09:51.861Z,93.50
2019-01-19T21:12:20.112Z,93.60
2019-01-19T21:14:48.793Z,94.00
2019-01-19T21:17:17.418Z,93.70
2019-01-19T21:19:45.673Z,94.00
2019-01-19T21:22:13.662Z,93.80
2019-01-19T21:24:42.038Z,94.30
2019-01-19T21:27:10.656Z,94.80
2019-01-19T21:29:39.100Z,94.90
2019-01-19T21:32:07.506Z,94.80
2019-01-19T21:34:35.942Z,94.30
2019-01-19T21:37:04.887Z,94.50
2019-01-19T21:39:32.927Z,94.30
2019-01-19T21:42:01.603Z,94.20
2019-01-19T21:44:29.911Z,94.10
2019-01-19T21:46:58.604Z,93.80
2019-01-19T21:49:27.287Z,94.00
2019-01-19T21:51:56.051Z,94.50
2019-01-19T21:54:24.172Z,94.90
2019-01-19T21:56:52.765Z,94.70
2019-01-19T21:59:21.442Z,94.70
2019-01-19T22:01:50.186Z,94.50
2019-01-19T22:04:18.537Z,94.60
2019-01-19T22:06:46.914Z,94.20
2019-01-19T22:09:15.849Z,94.40
2019-01-19T22:11:44.242Z,93.90
2019-01-19T22:14:12.942Z,93.60
2019-01-19T22:16:41.341Z,93.80
2019-01-19T22:19:09.517Z,94.30
2019-01-19T22:21:37.493Z,94.50
2019-01-19T22:24:06.187Z,94.90
2019-01-19T22:26:35.325Z,95.00
2019-01-19T22:29:03.207Z,95.00
2019-01-19T22:31:32.343Z,95.10
2019-01-19T22:34:00.895Z,95.40
2019-01-19T22:36:29.046Z,95.30
2019-01-19T22:38:57.652Z,94.80
2019-01-19T22:41:25.996Z,95.00
2019-01-19T22:43:54.525Z,94.50
2019-01-19T22:46:22.859Z,94.20
2019-01-19T22:48:50.864Z,94.00
2019-01-19T22:51:19.269Z,94.10
2019-01-19T22:53:47.411Z,94.20
2019-01-19T22:56:15.443Z,94.00
2019-01-19T22:58:43.549Z,94.60
2019-01-19T23:01:31.762Z,94.60
2019-01-19T23:04:00.432Z,95.10
2019-01-19T23:06:29.465Z,94.70
2019-01-19T23:08:57.998Z,94.80
2019-01-19T23:11:33.661Z,94.80
2019-01-19T23:13:56.835Z,95.20
2019-01-19T23:16:24.921Z,95.20
2019-01-19T23:18:55.316Z,95.00
2019-01-19T23:21:23.817Z,95.10
2019-01-19T23:23:52.392Z,94.90
2019-01-19T23:26:21.425Z,95.00
2019-01-19T23:28:50.403Z,95.30
2019-01-19T23:31:18.803Z,94.90
2019-01-19T23:33:47.513Z,95.00
2019-01-19T23:36:15.842Z,94.70
2019-01-19T23:38:44.005Z,94.50
2019-01-19T23:41:12.050Z,94.60
2019-01-19T23:43:40.407Z,95.10
2019-01-19T23:46:09.267Z,95.20
2019-01-19T23:48:37.745Z,94.90
2019-01-19T23:51:05.852Z,95.20
2019-01-19T23:53:34.796Z,95.50
2019-01-19T23:56:03.150Z,95.80
2019-01-19T23:58:32.486Z,96.20
